UAE606 OMDB-OPKC
Flight info
| Callsign | UAE606 |
|---|---|
| Flight time | 1h 36m |
| Altitude | 41000 |
| Route | IVURO M428 TARBO Z440 DAMUM B524 ALPOR G216 LAKIV |
| Aircraft | A359/H-SDE2E3GHIJ3J4J5LM1ORWXY/LB1D1 |
Departure
| Time | 2026-05-05 21:39 |
|---|---|
| Airport | Dubai International Airport (OMDB) |
Arrival
| Time | 2026-05-05 23:16 |
|---|---|
| Airport | Jinnah International Airport (OPKC) |
| Time | Latitude | Longitude | Altitude | Speed | Heading |
|---|---|---|---|---|---|
| 2026-05-05 21:25 | 25.24767 | 55.36499 | 27 ft | 0 kts | 211° |
| 2026-05-05 21:28 | 25.24783 | 55.36510 | 27 ft | 4 kts | 211° |
| 2026-05-05 21:28 | 25.24806 | 55.36526 | 25 ft | 4 kts | 211° |
| 2026-05-05 21:29 | 25.24825 | 55.36538 | 26 ft | 4 kts | 202° |
| 2026-05-05 21:29 | 25.24849 | 55.36542 | 25 ft | 4 kts | 156° |
| 2026-05-05 21:29 | 25.24868 | 55.36524 | 26 ft | 3 kts | 122° |
| 2026-05-05 21:29 | 25.24882 | 55.36500 | 26 ft | 4 kts | 122° |
| 2026-05-05 21:30 | 25.24887 | 55.36491 | 26 ft | 0 kts | 122° |
| 2026-05-05 21:31 | 25.24886 | 55.36492 | 26 ft | 1 kts | 122° |
| 2026-05-05 21:32 | 25.24877 | 55.36507 | 25 ft | 4 kts | 122° |
| 2026-05-05 21:32 | 25.24859 | 55.36540 | 24 ft | 6 kts | 122° |
| 2026-05-05 21:32 | 25.24832 | 55.36588 | 27 ft | 8 kts | 120° |
| 2026-05-05 21:32 | 25.24803 | 55.36654 | 27 ft | 11 kts | 112° |
| 2026-05-05 21:33 | 25.24779 | 55.36739 | 27 ft | 13 kts | 104° |
| 2026-05-05 21:33 | 25.24753 | 55.36838 | 27 ft | 14 kts | 114° |
| 2026-05-05 21:33 | 25.24753 | 55.36936 | 27 ft | 14 kts | 50° |
| 2026-05-05 21:33 | 25.24798 | 55.36936 | 28 ft | 6 kts | 321° |
| 2026-05-05 21:34 | 25.24827 | 55.36894 | 28 ft | 8 kts | 301° |
| 2026-05-05 21:34 | 25.24851 | 55.36831 | 28 ft | 10 kts | 288° |
| 2026-05-05 21:34 | 25.24870 | 55.36747 | 27 ft | 12 kts | 283° |
| 2026-05-05 21:34 | 25.24902 | 55.36653 | 27 ft | 14 kts | 298° |
| 2026-05-05 21:35 | 25.24955 | 55.36554 | 27 ft | 16 kts | 302° |
| 2026-05-05 21:35 | 25.25016 | 55.36445 | 27 ft | 18 kts | 302° |
| 2026-05-05 21:35 | 25.25082 | 55.36327 | 27 ft | 18 kts | 302° |
| 2026-05-05 21:35 | 25.25139 | 55.36257 | 27 ft | 11 kts | 340° |
| 2026-05-05 21:36 | 25.25211 | 55.36280 | 28 ft | 10 kts | 29° |
| 2026-05-05 21:36 | 25.25221 | 55.36286 | 28 ft | 0 kts | 29° |
| 2026-05-05 21:37 | 25.25226 | 55.36289 | 28 ft | 2 kts | 29° |
| 2026-05-05 21:37 | 25.25245 | 55.36301 | 28 ft | 4 kts | 30° |
| 2026-05-05 21:37 | 25.25279 | 55.36327 | 28 ft | 7 kts | 41° |
| 2026-05-05 21:37 | 25.25300 | 55.36385 | 28 ft | 9 kts | 91° |
| 2026-05-05 21:38 | 25.25274 | 55.36453 | 28 ft | 11 kts | 121° |
| 2026-05-05 21:38 | 25.25269 | 55.36461 | 28 ft | 0 kts | 121° |
| 2026-05-05 21:38 | 25.25242 | 55.36510 | 28 ft | 37 kts | 121° |
| 2026-05-05 21:38 | 25.24939 | 55.37051 | 31 ft | 124 kts | 122° |
| 2026-05-05 21:39 | 25.24351 | 55.38081 | 108 ft | 183 kts | 122° |
| 2026-05-05 21:39 | 25.23672 | 55.39339 | 678 ft | 202 kts | 120° |
| 2026-05-05 21:39 | 25.22938 | 55.40701 | 1570 ft | 217 kts | 121° |
| 2026-05-05 21:39 | 25.22120 | 55.42173 | 2465 ft | 228 kts | 122° |
| 2026-05-05 21:40 | 25.21290 | 55.43658 | 3577 ft | 228 kts | 122° |
| 2026-05-05 21:40 | 25.20461 | 55.45206 | 4411 ft | 243 kts | 116° |
| 2026-05-05 21:40 | 25.20037 | 55.47077 | 5016 ft | 256 kts | 95° |
| 2026-05-05 21:40 | 25.19968 | 55.48990 | 5971 ft | 244 kts | 91° |
| 2026-05-05 21:41 | 25.19941 | 55.50855 | 6711 ft | 242 kts | 91° |
| 2026-05-05 21:41 | 25.19909 | 55.52725 | 7346 ft | 245 kts | 91° |
| 2026-05-05 21:41 | 25.19869 | 55.54615 | 7973 ft | 247 kts | 91° |
| 2026-05-05 21:41 | 25.19824 | 55.56517 | 8563 ft | 249 kts | 91° |
| 2026-05-05 21:42 | 25.19774 | 55.58438 | 9186 ft | 252 kts | 91° |
| 2026-05-05 21:42 | 25.19857 | 55.60373 | 9768 ft | 254 kts | 78° |
| 2026-05-05 21:42 | 25.20603 | 55.62142 | 10239 ft | 262 kts | 51° |
| 2026-05-05 21:42 | 25.21940 | 55.63595 | 10484 ft | 279 kts | 40° |
| 2026-05-05 21:43 | 25.23480 | 55.65001 | 10720 ft | 296 kts | 39° |
| 2026-05-05 21:43 | 25.25115 | 55.66483 | 10959 ft | 312 kts | 39° |
| 2026-05-05 21:43 | 25.26828 | 55.68056 | 11189 ft | 328 kts | 39° |
| 2026-05-05 21:43 | 25.28609 | 55.69711 | 11496 ft | 340 kts | 40° |
| 2026-05-05 21:44 | 25.30433 | 55.71417 | 11957 ft | 345 kts | 40° |
| 2026-05-05 21:44 | 25.32275 | 55.73145 | 12496 ft | 349 kts | 40° |
| 2026-05-05 21:44 | 25.34036 | 55.74998 | 13004 ft | 352 kts | 49° |
| 2026-05-05 21:44 | 25.35333 | 55.77300 | 13513 ft | 355 kts | 67° |
| 2026-05-05 21:45 | 25.35949 | 55.79947 | 14025 ft | 358 kts | 81° |
| 2026-05-05 21:45 | 25.36255 | 55.82688 | 14531 ft | 361 kts | 84° |
| 2026-05-05 21:45 | 25.36521 | 55.85455 | 15026 ft | 363 kts | 84° |
| 2026-05-05 21:45 | 25.36793 | 55.88240 | 15521 ft | 366 kts | 84° |
| 2026-05-05 21:46 | 25.37075 | 55.91052 | 16007 ft | 369 kts | 83° |
| 2026-05-05 21:46 | 25.37225 | 55.93888 | 16469 ft | 372 kts | 92° |
| 2026-05-05 21:46 | 25.36836 | 55.96719 | 16927 ft | 374 kts | 102° |
| 2026-05-05 21:46 | 25.36449 | 55.98578 | 17226 ft | 376 kts | 103° |
| 2026-05-05 21:47 | 25.35829 | 56.01394 | 17678 ft | 378 kts | 104° |
| 2026-05-05 21:47 | 25.35204 | 56.04232 | 18110 ft | 381 kts | 103° |
| 2026-05-05 21:47 | 25.34580 | 56.07090 | 18528 ft | 384 kts | 103° |
| 2026-05-05 21:47 | 25.33956 | 56.09970 | 18941 ft | 387 kts | 103° |
| 2026-05-05 21:48 | 25.33329 | 56.12867 | 19322 ft | 389 kts | 103° |
| 2026-05-05 21:48 | 25.32643 | 56.15774 | 19722 ft | 392 kts | 106° |
| 2026-05-05 21:48 | 25.31812 | 56.18648 | 20098 ft | 394 kts | 109° |
| 2026-05-05 21:48 | 25.30893 | 56.21511 | 20459 ft | 397 kts | 110° |
| 2026-05-05 21:49 | 25.29927 | 56.24382 | 20796 ft | 400 kts | 110° |
| 2026-05-05 21:49 | 25.28946 | 56.27266 | 21180 ft | 402 kts | 110° |
| 2026-05-05 21:49 | 25.27965 | 56.30161 | 21570 ft | 403 kts | 110° |
| 2026-05-05 21:49 | 25.26990 | 56.33068 | 21957 ft | 404 kts | 110° |
| 2026-05-05 21:50 | 25.26017 | 56.35990 | 22341 ft | 406 kts | 110° |
| 2026-05-05 21:50 | 25.25046 | 56.38923 | 22705 ft | 408 kts | 110° |
| 2026-05-05 21:50 | 25.24072 | 56.41874 | 23054 ft | 410 kts | 110° |
| 2026-05-05 21:50 | 25.23095 | 56.44833 | 23380 ft | 412 kts | 110° |
| 2026-05-05 21:51 | 25.22112 | 56.47810 | 23717 ft | 414 kts | 110° |
| 2026-05-05 21:51 | 25.21122 | 56.50804 | 24024 ft | 416 kts | 110° |
| 2026-05-05 21:51 | 25.20127 | 56.53811 | 24332 ft | 418 kts | 110° |
| 2026-05-05 21:51 | 25.19126 | 56.56830 | 24636 ft | 420 kts | 110° |
| 2026-05-05 21:52 | 25.16992 | 56.62811 | 25226 ft | 423 kts | 112° |
| 2026-05-05 21:52 | 25.15838 | 56.65854 | 25516 ft | 425 kts | 113° |
| 2026-05-05 21:52 | 25.14684 | 56.68867 | 25828 ft | 427 kts | 113° |
| 2026-05-05 21:53 | 25.13524 | 56.71897 | 26113 ft | 429 kts | 113° |
| 2026-05-05 21:53 | 25.12378 | 56.74900 | 26400 ft | 431 kts | 113° |
| 2026-05-05 21:53 | 25.11201 | 56.77995 | 26720 ft | 433 kts | 112° |
| 2026-05-05 21:53 | 25.10035 | 56.81071 | 27034 ft | 435 kts | 112° |
| 2026-05-05 21:54 | 25.08882 | 56.84118 | 27342 ft | 437 kts | 112° |
| 2026-05-05 21:54 | 25.07707 | 56.87223 | 27673 ft | 439 kts | 112° |
| 2026-05-05 21:54 | 25.06527 | 56.90339 | 27984 ft | 442 kts | 112° |
| 2026-05-05 21:54 | 25.05341 | 56.93471 | 28312 ft | 444 kts | 112° |
| 2026-05-05 21:55 | 25.04147 | 56.96619 | 28633 ft | 446 kts | 112° |
| 2026-05-05 21:55 | 25.02945 | 56.99785 | 28967 ft | 448 kts | 112° |
| 2026-05-05 21:55 | 25.01740 | 57.02958 | 29268 ft | 450 kts | 112° |
| 2026-05-05 21:55 | 25.00526 | 57.06150 | 29583 ft | 453 kts | 112° |
| 2026-05-05 21:56 | 24.99306 | 57.09357 | 29905 ft | 455 kts | 112° |
| 2026-05-05 21:56 | 24.98078 | 57.12580 | 30224 ft | 457 kts | 113° |
| 2026-05-05 21:56 | 24.96845 | 57.15816 | 30551 ft | 459 kts | 113° |
| 2026-05-05 21:56 | 24.95605 | 57.19068 | 30858 ft | 462 kts | 113° |
| 2026-05-05 21:57 | 24.94357 | 57.22337 | 31176 ft | 464 kts | 113° |
| 2026-05-05 21:57 | 24.93103 | 57.25621 | 31479 ft | 466 kts | 113° |
| 2026-05-05 21:57 | 24.91843 | 57.28916 | 31778 ft | 468 kts | 113° |
| 2026-05-05 21:57 | 24.90575 | 57.32229 | 32068 ft | 470 kts | 113° |
| 2026-05-05 21:58 | 24.89302 | 57.35554 | 32339 ft | 472 kts | 113° |
| 2026-05-05 21:58 | 24.88022 | 57.38894 | 32618 ft | 474 kts | 113° |
| 2026-05-05 21:58 | 24.86735 | 57.42252 | 32882 ft | 476 kts | 113° |
| 2026-05-05 21:58 | 24.85444 | 57.45615 | 33139 ft | 478 kts | 113° |
| 2026-05-05 21:59 | 24.84145 | 57.48995 | 33382 ft | 480 kts | 113° |
| 2026-05-05 21:59 | 24.82842 | 57.52386 | 33627 ft | 482 kts | 113° |
| 2026-05-05 21:59 | 24.81533 | 57.55789 | 33861 ft | 484 kts | 113° |
| 2026-05-05 21:59 | 24.80218 | 57.59204 | 34086 ft | 485 kts | 113° |
| 2026-05-05 22:00 | 24.78899 | 57.62627 | 34318 ft | 487 kts | 113° |
| 2026-05-05 22:00 | 24.77572 | 57.66067 | 34528 ft | 489 kts | 113° |
| 2026-05-05 22:00 | 24.76241 | 57.69516 | 34766 ft | 490 kts | 113° |
| 2026-05-05 22:00 | 24.74912 | 57.72959 | 35075 ft | 489 kts | 113° |
| 2026-05-05 22:01 | 24.73695 | 57.76447 | 35392 ft | 488 kts | 108° |
| 2026-05-05 22:01 | 24.72875 | 57.80063 | 35684 ft | 487 kts | 101° |
| 2026-05-05 22:01 | 24.72298 | 57.83731 | 35982 ft | 487 kts | 99° |
| 2026-05-05 22:01 | 24.71798 | 57.87410 | 36272 ft | 486 kts | 98° |
| 2026-05-05 22:02 | 24.71342 | 57.91046 | 36538 ft | 486 kts | 97° |
| 2026-05-05 22:02 | 24.70890 | 57.94779 | 36806 ft | 486 kts | 97° |
| 2026-05-05 22:02 | 24.70443 | 57.98467 | 37064 ft | 486 kts | 97° |
| 2026-05-05 22:02 | 24.69998 | 58.02103 | 37303 ft | 486 kts | 98° |
| 2026-05-05 22:03 | 24.69540 | 58.05784 | 37542 ft | 486 kts | 98° |
| 2026-05-05 22:03 | 24.69076 | 58.09466 | 37771 ft | 486 kts | 98° |
| 2026-05-05 22:03 | 24.68608 | 58.13149 | 37995 ft | 486 kts | 98° |
| 2026-05-05 22:03 | 24.68138 | 58.16831 | 38206 ft | 486 kts | 98° |
| 2026-05-05 22:04 | 24.67666 | 58.20515 | 38435 ft | 486 kts | 98° |
| 2026-05-05 22:04 | 24.67194 | 58.24192 | 38623 ft | 486 kts | 98° |
| 2026-05-05 22:04 | 24.66720 | 58.27876 | 38822 ft | 486 kts | 98° |
| 2026-05-05 22:04 | 24.66246 | 58.31559 | 39010 ft | 486 kts | 98° |
| 2026-05-05 22:05 | 24.65771 | 58.35240 | 39199 ft | 486 kts | 98° |
| 2026-05-05 22:05 | 24.65296 | 58.38919 | 39374 ft | 486 kts | 98° |
| 2026-05-05 22:05 | 24.64819 | 58.42602 | 39544 ft | 486 kts | 98° |
| 2026-05-05 22:05 | 24.64342 | 58.46282 | 39714 ft | 486 kts | 98° |
| 2026-05-05 22:06 | 24.63864 | 58.49963 | 39873 ft | 486 kts | 98° |
| 2026-05-05 22:06 | 24.63385 | 58.53643 | 40025 ft | 486 kts | 98° |
| 2026-05-05 22:06 | 24.62904 | 58.57324 | 40174 ft | 486 kts | 98° |
| 2026-05-05 22:06 | 24.62423 | 58.61004 | 40308 ft | 487 kts | 98° |
| 2026-05-05 22:07 | 24.61942 | 58.64684 | 40449 ft | 487 kts | 98° |
| 2026-05-05 22:07 | 24.61459 | 58.68361 | 40579 ft | 487 kts | 98° |
| 2026-05-05 22:07 | 24.60975 | 58.72042 | 40704 ft | 487 kts | 98° |
| 2026-05-05 22:07 | 24.60491 | 58.75717 | 40823 ft | 487 kts | 98° |
| 2026-05-05 22:08 | 24.60005 | 58.79398 | 40939 ft | 487 kts | 98° |
| 2026-05-05 22:08 | 24.59035 | 58.86732 | 40998 ft | 490 kts | 98° |
| 2026-05-05 22:09 | 24.58050 | 58.94145 | 40999 ft | 490 kts | 98° |
| 2026-05-05 22:09 | 24.57062 | 59.01554 | 41002 ft | 490 kts | 98° |
| 2026-05-05 22:10 | 24.56071 | 59.08957 | 40998 ft | 490 kts | 98° |
| 2026-05-05 22:10 | 24.55076 | 59.16360 | 41000 ft | 490 kts | 98° |
| 2026-05-05 22:11 | 24.54009 | 59.23750 | 40999 ft | 490 kts | 101° |
| 2026-05-05 22:11 | 24.52510 | 59.31051 | 41000 ft | 490 kts | 104° |
| 2026-05-05 22:12 | 24.50879 | 59.38311 | 41002 ft | 490 kts | 104° |
| 2026-05-05 22:12 | 24.49275 | 59.45580 | 40998 ft | 490 kts | 103° |
| 2026-05-05 22:13 | 24.47703 | 59.52855 | 40999 ft | 490 kts | 103° |
| 2026-05-05 22:13 | 24.46139 | 59.60136 | 40999 ft | 490 kts | 103° |
| 2026-05-05 22:14 | 24.44573 | 59.67413 | 40999 ft | 490 kts | 103° |
| 2026-05-05 22:14 | 24.43002 | 59.74684 | 41000 ft | 490 kts | 103° |
| 2026-05-05 22:15 | 24.41425 | 59.81959 | 41001 ft | 490 kts | 103° |
| 2026-05-05 22:15 | 24.39846 | 59.89228 | 40998 ft | 490 kts | 103° |
| 2026-05-05 22:16 | 24.38274 | 59.96446 | 41000 ft | 490 kts | 103° |
| 2026-05-05 22:16 | 24.36687 | 60.03714 | 41003 ft | 490 kts | 103° |
| 2026-05-05 22:17 | 24.35098 | 60.10976 | 40999 ft | 490 kts | 103° |
| 2026-05-05 22:17 | 24.33506 | 60.18242 | 41002 ft | 490 kts | 103° |
| 2026-05-05 22:18 | 24.31910 | 60.25506 | 40999 ft | 490 kts | 103° |
| 2026-05-05 22:18 | 24.30312 | 60.32761 | 40998 ft | 490 kts | 103° |
| 2026-05-05 22:19 | 24.28710 | 60.40019 | 41003 ft | 490 kts | 103° |
| 2026-05-05 22:19 | 24.27104 | 60.47278 | 40997 ft | 490 kts | 103° |
| 2026-05-05 22:20 | 24.25495 | 60.54531 | 40999 ft | 490 kts | 104° |
| 2026-05-05 22:20 | 24.23882 | 60.61787 | 41003 ft | 490 kts | 104° |
| 2026-05-05 22:21 | 24.22266 | 60.69037 | 41000 ft | 490 kts | 104° |
| 2026-05-05 22:21 | 24.20647 | 60.76286 | 41001 ft | 490 kts | 104° |
| 2026-05-05 22:22 | 24.19029 | 60.83530 | 40999 ft | 490 kts | 104° |
| 2026-05-05 22:22 | 24.17407 | 60.90781 | 41003 ft | 490 kts | 104° |
| 2026-05-05 22:23 | 24.15783 | 60.98021 | 41000 ft | 490 kts | 104° |
| 2026-05-05 22:23 | 24.14153 | 61.05266 | 41000 ft | 490 kts | 104° |
| 2026-05-05 22:24 | 24.12532 | 61.12457 | 40998 ft | 490 kts | 104° |
| 2026-05-05 22:24 | 24.10886 | 61.19742 | 41000 ft | 490 kts | 104° |
| 2026-05-05 22:25 | 24.09258 | 61.26933 | 41000 ft | 490 kts | 104° |
| 2026-05-05 22:25 | 24.08338 | 61.34299 | 41002 ft | 490 kts | 90° |
| 2026-05-05 22:26 | 24.08971 | 61.41709 | 41000 ft | 490 kts | 82° |
| 2026-05-05 22:26 | 24.10043 | 61.49071 | 40998 ft | 490 kts | 80° |
| 2026-05-05 22:27 | 24.11171 | 61.56424 | 40999 ft | 490 kts | 81° |
| 2026-05-05 22:27 | 24.12270 | 61.63782 | 41003 ft | 490 kts | 81° |
| 2026-05-05 22:28 | 24.13344 | 61.71148 | 40998 ft | 490 kts | 81° |
| 2026-05-05 22:28 | 24.14408 | 61.78512 | 40998 ft | 490 kts | 81° |
| 2026-05-05 22:29 | 24.15425 | 61.85889 | 41000 ft | 490 kts | 81° |
| 2026-05-05 22:29 | 24.16426 | 61.93270 | 40998 ft | 490 kts | 81° |
| 2026-05-05 22:30 | 24.17424 | 62.00648 | 41000 ft | 490 kts | 81° |
| 2026-05-05 22:30 | 24.18420 | 62.08029 | 41003 ft | 490 kts | 82° |
| 2026-05-05 22:31 | 24.19413 | 62.15409 | 41000 ft | 490 kts | 82° |
| 2026-05-05 22:31 | 24.20402 | 62.22791 | 41000 ft | 490 kts | 82° |
| 2026-05-05 22:32 | 24.21389 | 62.30181 | 40999 ft | 490 kts | 82° |
| 2026-05-05 22:32 | 24.22371 | 62.37562 | 40999 ft | 490 kts | 82° |
| 2026-05-05 22:33 | 24.23350 | 62.44951 | 40998 ft | 490 kts | 82° |
| 2026-05-05 22:33 | 24.24325 | 62.52339 | 41000 ft | 490 kts | 82° |
| 2026-05-05 22:34 | 24.25297 | 62.59726 | 41000 ft | 490 kts | 82° |
| 2026-05-05 22:34 | 24.26258 | 62.67068 | 41000 ft | 490 kts | 82° |
| 2026-05-05 22:35 | 24.27222 | 62.74453 | 40997 ft | 490 kts | 82° |
| 2026-05-05 22:35 | 24.28184 | 62.81848 | 40999 ft | 490 kts | 82° |
| 2026-05-05 22:36 | 24.29141 | 62.89241 | 41001 ft | 490 kts | 82° |
| 2026-05-05 22:36 | 24.30095 | 62.96636 | 41000 ft | 490 kts | 82° |
| 2026-05-05 22:37 | 24.30885 | 63.02781 | 41000 ft | 490 kts | 82° |
| 2026-05-05 22:37 | 24.31832 | 63.10179 | 40999 ft | 490 kts | 82° |
| 2026-05-05 22:38 | 24.32775 | 63.17574 | 41000 ft | 490 kts | 82° |
| 2026-05-05 22:38 | 24.33715 | 63.24973 | 40998 ft | 490 kts | 82° |
| 2026-05-05 22:39 | 24.34652 | 63.32373 | 41000 ft | 490 kts | 82° |
| 2026-05-05 22:39 | 24.35585 | 63.39777 | 40999 ft | 490 kts | 82° |
| 2026-05-05 22:40 | 24.36514 | 63.47176 | 41000 ft | 490 kts | 82° |
| 2026-05-05 22:40 | 24.37440 | 63.54577 | 40999 ft | 490 kts | 82° |
| 2026-05-05 22:41 | 24.38362 | 63.61978 | 41003 ft | 490 kts | 82° |
| 2026-05-05 22:41 | 24.39281 | 63.69389 | 41003 ft | 490 kts | 82° |
| 2026-05-05 22:42 | 24.40195 | 63.76791 | 41001 ft | 490 kts | 82° |
| 2026-05-05 22:42 | 24.41107 | 63.84203 | 41003 ft | 490 kts | 82° |
| 2026-05-05 22:43 | 24.42014 | 63.91607 | 41000 ft | 490 kts | 82° |
| 2026-05-05 22:43 | 24.42919 | 63.99019 | 40999 ft | 490 kts | 82° |
| 2026-05-05 22:44 | 24.43819 | 64.06423 | 40999 ft | 490 kts | 82° |
| 2026-05-05 22:44 | 24.44716 | 64.13837 | 40998 ft | 490 kts | 82° |
| 2026-05-05 22:45 | 24.45609 | 64.21253 | 40999 ft | 490 kts | 82° |
| 2026-05-05 22:45 | 24.46498 | 64.28662 | 41002 ft | 490 kts | 82° |
| 2026-05-05 22:46 | 24.47385 | 64.36077 | 41000 ft | 490 kts | 82° |
| 2026-05-05 22:46 | 24.48262 | 64.43449 | 41000 ft | 490 kts | 82° |
| 2026-05-05 22:47 | 24.49140 | 64.50864 | 41000 ft | 490 kts | 82° |
| 2026-05-05 22:47 | 24.50016 | 64.58284 | 41003 ft | 490 kts | 82° |
| 2026-05-05 22:48 | 24.50887 | 64.65701 | 41001 ft | 490 kts | 83° |
| 2026-05-05 22:48 | 24.51756 | 64.73123 | 40999 ft | 490 kts | 83° |
| 2026-05-05 22:49 | 24.52620 | 64.80542 | 41000 ft | 490 kts | 83° |
| 2026-05-05 22:49 | 24.53315 | 64.87985 | 41003 ft | 490 kts | 85° |
| 2026-05-05 22:50 | 24.53890 | 64.95440 | 41002 ft | 490 kts | 85° |
| 2026-05-05 22:50 | 24.54468 | 65.02894 | 41002 ft | 490 kts | 85° |
| 2026-05-05 22:51 | 24.55046 | 65.10350 | 41003 ft | 490 kts | 85° |
| 2026-05-05 22:51 | 24.55622 | 65.17805 | 41003 ft | 490 kts | 85° |
| 2026-05-05 22:52 | 24.56191 | 65.25222 | 40532 ft | 482 kts | 85° |
| 2026-05-05 22:52 | 24.56471 | 65.28884 | 39906 ft | 482 kts | 85° |
| 2026-05-05 22:52 | 24.56750 | 65.32553 | 39241 ft | 482 kts | 85° |
| 2026-05-05 22:52 | 24.57028 | 65.36220 | 38581 ft | 481 kts | 85° |
| 2026-05-05 22:53 | 24.57306 | 65.39882 | 37913 ft | 481 kts | 85° |
| 2026-05-05 22:53 | 24.57582 | 65.43543 | 37236 ft | 481 kts | 85° |
| 2026-05-05 22:53 | 24.57858 | 65.47213 | 36543 ft | 481 kts | 85° |
| 2026-05-05 22:53 | 24.58132 | 65.50878 | 35851 ft | 481 kts | 85° |
| 2026-05-05 22:54 | 24.58405 | 65.54538 | 35218 ft | 480 kts | 85° |
| 2026-05-05 22:54 | 24.58677 | 65.58184 | 34654 ft | 477 kts | 85° |
| 2026-05-05 22:54 | 24.58942 | 65.61756 | 34131 ft | 473 kts | 85° |
| 2026-05-05 22:54 | 24.59211 | 65.65391 | 33602 ft | 470 kts | 85° |
| 2026-05-05 22:55 | 24.59473 | 65.68956 | 33088 ft | 466 kts | 85° |
| 2026-05-05 22:55 | 24.59729 | 65.72439 | 32589 ft | 462 kts | 85° |
| 2026-05-05 22:55 | 24.59986 | 65.75943 | 32082 ft | 459 kts | 85° |
| 2026-05-05 22:55 | 24.60240 | 65.79424 | 31579 ft | 455 kts | 85° |
| 2026-05-05 22:56 | 24.60491 | 65.82873 | 31087 ft | 451 kts | 85° |
| 2026-05-05 22:56 | 24.60739 | 65.86297 | 30573 ft | 448 kts | 85° |
| 2026-05-05 22:56 | 24.60985 | 65.89695 | 30078 ft | 444 kts | 85° |
| 2026-05-05 22:56 | 24.61228 | 65.93068 | 29584 ft | 441 kts | 85° |
| 2026-05-05 22:57 | 24.61468 | 65.96410 | 29091 ft | 437 kts | 85° |
| 2026-05-05 22:57 | 24.61706 | 65.99729 | 28600 ft | 434 kts | 85° |
| 2026-05-05 22:57 | 24.61942 | 66.03024 | 28110 ft | 431 kts | 85° |
| 2026-05-05 22:57 | 24.62174 | 66.06290 | 27620 ft | 427 kts | 85° |
| 2026-05-05 22:58 | 24.62404 | 66.09535 | 27134 ft | 424 kts | 85° |
| 2026-05-05 22:58 | 24.62632 | 66.12757 | 26648 ft | 421 kts | 85° |
| 2026-05-05 22:58 | 24.62858 | 66.15952 | 26165 ft | 418 kts | 85° |
| 2026-05-05 22:58 | 24.63081 | 66.19121 | 25683 ft | 415 kts | 85° |
| 2026-05-05 22:59 | 24.63302 | 66.22270 | 25201 ft | 412 kts | 85° |
| 2026-05-05 22:59 | 24.63520 | 66.25396 | 24716 ft | 409 kts | 85° |
| 2026-05-05 22:59 | 24.63736 | 66.28497 | 24232 ft | 405 kts | 85° |
| 2026-05-05 22:59 | 24.63950 | 66.31575 | 23743 ft | 402 kts | 85° |
| 2026-05-05 23:00 | 24.64372 | 66.37664 | 22761 ft | 396 kts | 85° |
| 2026-05-05 23:00 | 24.64579 | 66.40671 | 22265 ft | 393 kts | 85° |
| 2026-05-05 23:00 | 24.64784 | 66.43660 | 21770 ft | 390 kts | 85° |
| 2026-05-05 23:01 | 24.64987 | 66.46624 | 21274 ft | 388 kts | 85° |
| 2026-05-05 23:01 | 24.65188 | 66.49566 | 20773 ft | 385 kts | 85° |
| 2026-05-05 23:01 | 24.65387 | 66.52487 | 20282 ft | 382 kts | 85° |
| 2026-05-05 23:01 | 24.65584 | 66.55385 | 19791 ft | 379 kts | 85° |
| 2026-05-05 23:02 | 24.65779 | 66.58261 | 19297 ft | 376 kts | 85° |
| 2026-05-05 23:02 | 24.65972 | 66.61119 | 18802 ft | 373 kts | 85° |
| 2026-05-05 23:02 | 24.66164 | 66.63956 | 18311 ft | 371 kts | 85° |
| 2026-05-05 23:02 | 24.66354 | 66.66769 | 17759 ft | 369 kts | 85° |
| 2026-05-05 23:03 | 24.66544 | 66.69606 | 16920 ft | 376 kts | 85° |
| 2026-05-05 23:03 | 24.66738 | 66.72503 | 16044 ft | 383 kts | 85° |
| 2026-05-05 23:03 | 24.66932 | 66.75407 | 15160 ft | 388 kts | 85° |
| 2026-05-05 23:03 | 24.67130 | 66.78382 | 14285 ft | 393 kts | 86° |
| 2026-05-05 23:04 | 24.67330 | 66.81388 | 13392 ft | 395 kts | 86° |
| 2026-05-05 23:04 | 24.67530 | 66.84413 | 12506 ft | 397 kts | 86° |
| 2026-05-05 23:04 | 24.67727 | 66.87397 | 11631 ft | 383 kts | 86° |
| 2026-05-05 23:04 | 24.67914 | 66.90243 | 11040 ft | 361 kts | 86° |
| 2026-05-05 23:05 | 24.68089 | 66.92903 | 10627 ft | 337 kts | 86° |
| 2026-05-05 23:05 | 24.68251 | 66.95387 | 10270 ft | 315 kts | 86° |
| 2026-05-05 23:05 | 24.68403 | 66.97716 | 9887 ft | 296 kts | 86° |
| 2026-05-05 23:05 | 24.68548 | 66.99939 | 9763 ft | 293 kts | 86° |
| 2026-05-05 23:06 | 24.68693 | 67.02176 | 9635 ft | 292 kts | 86° |
| 2026-05-05 23:06 | 24.68940 | 67.04387 | 9504 ft | 292 kts | 76° |
| 2026-05-05 23:06 | 24.69712 | 67.06436 | 9361 ft | 291 kts | 61° |
| 2026-05-05 23:06 | 24.70727 | 67.08357 | 9129 ft | 290 kts | 58° |
| 2026-05-05 23:07 | 24.71770 | 67.10244 | 8870 ft | 289 kts | 58° |
| 2026-05-05 23:07 | 24.72810 | 67.12131 | 8629 ft | 288 kts | 58° |
| 2026-05-05 23:07 | 24.73838 | 67.14010 | 8391 ft | 286 kts | 59° |
| 2026-05-05 23:07 | 24.74861 | 67.15891 | 8226 ft | 286 kts | 59° |
| 2026-05-05 23:08 | 24.75879 | 67.17769 | 7990 ft | 285 kts | 59° |
| 2026-05-05 23:08 | 24.76891 | 67.19640 | 7667 ft | 284 kts | 59° |
| 2026-05-05 23:08 | 24.77897 | 67.21501 | 7360 ft | 282 kts | 59° |
| 2026-05-05 23:08 | 24.78898 | 67.23354 | 7047 ft | 280 kts | 59° |
| 2026-05-05 23:09 | 24.79888 | 67.25189 | 6747 ft | 278 kts | 59° |
| 2026-05-05 23:09 | 24.80872 | 67.27013 | 6437 ft | 276 kts | 59° |
| 2026-05-05 23:09 | 24.81850 | 67.28829 | 6094 ft | 276 kts | 59° |
| 2026-05-05 23:09 | 24.82824 | 67.30635 | 5714 ft | 273 kts | 59° |
| 2026-05-05 23:10 | 24.83793 | 67.32434 | 5256 ft | 274 kts | 59° |
| 2026-05-05 23:10 | 24.84758 | 67.34226 | 4651 ft | 269 kts | 59° |
| 2026-05-05 23:10 | 24.85696 | 67.35969 | 4345 ft | 268 kts | 59° |
| 2026-05-05 23:10 | 24.86699 | 67.37707 | 4266 ft | 269 kts | 52° |
| 2026-05-05 23:11 | 24.88120 | 67.38999 | 4079 ft | 267 kts | 25° |
| 2026-05-05 23:11 | 24.89917 | 67.39396 | 3805 ft | 265 kts | 356° |
| 2026-05-05 23:11 | 24.91713 | 67.39028 | 3324 ft | 261 kts | 344° |
| 2026-05-05 23:11 | 24.93459 | 67.38468 | 3123 ft | 263 kts | 341° |
| 2026-05-05 23:12 | 24.94964 | 67.37368 | 3098 ft | 251 kts | 308° |
| 2026-05-05 23:12 | 24.95536 | 67.35696 | 3101 ft | 232 kts | 271° |
| 2026-05-05 23:12 | 24.95155 | 67.34009 | 3110 ft | 228 kts | 247° |
| 2026-05-05 23:12 | 24.94588 | 67.32370 | 2886 ft | 229 kts | 252° |
| 2026-05-05 23:13 | 24.94159 | 67.30678 | 2551 ft | 229 kts | 256° |
| 2026-05-05 23:13 | 24.93758 | 67.28987 | 2223 ft | 227 kts | 255° |
| 2026-05-05 23:13 | 24.93335 | 67.27339 | 1918 ft | 218 kts | 254° |
| 2026-05-05 23:13 | 24.92940 | 67.25776 | 1668 ft | 205 kts | 255° |
| 2026-05-05 23:14 | 24.92580 | 67.24329 | 1404 ft | 186 kts | 255° |
| 2026-05-05 23:14 | 24.92252 | 67.23018 | 1147 ft | 173 kts | 255° |
| 2026-05-05 23:14 | 24.91936 | 67.21752 | 922 ft | 171 kts | 255° |
| 2026-05-05 23:14 | 24.91625 | 67.20507 | 681 ft | 164 kts | 255° |
| 2026-05-05 23:15 | 24.91331 | 67.19331 | 468 ft | 154 kts | 255° |
| 2026-05-05 23:15 | 24.91057 | 67.18234 | 276 ft | 145 kts | 255° |
| 2026-05-05 23:15 | 24.90793 | 67.17177 | 123 ft | 139 kts | 255° |
| 2026-05-05 23:15 | 24.90564 | 67.16260 | 103 ft | 93 kts | 254° |
| 2026-05-05 23:16 | 24.90472 | 67.15892 | 103 ft | 6 kts | 255° |
| 2026-05-05 23:16 | 24.90469 | 67.15879 | 103 ft | 4 kts | 255° |
| 2026-05-05 23:16 | 24.90458 | 67.15838 | 102 ft | 7 kts | 255° |
| 2026-05-05 23:16 | 24.90445 | 67.15796 | 103 ft | 0 kts | 247° |
| 2026-05-05 23:17 | 24.90442 | 67.15788 | 103 ft | 4 kts | 245° |
| 2026-05-05 23:17 | 24.90431 | 67.15765 | 104 ft | 0 kts | 241° |
| 2026-05-05 23:18 | 24.90287 | 67.16857 | 104 ft | 0 kts | 127° |